EGXP

Details ICAO EGXP
Name RAF Scampton
Region United Kingdom
Timezone Europe/London (UTC+0.0)
Plans Departing 7
Arriving 2
Stats Elevation 202 ft / 62 m (AMSL)
Location 53.307944° -0.550831°
Runways 1
Magnetic Variation 0.809° W
Sunrise 2017-12-11 08:08:36 UTC / 2017-12-11 08:08:36 Local
Sunset 2017-12-11 15:45:13 UTC / 2017-12-11 15:45:13 Local
Advertisement - Login to hide

Runways

ID Width Length Bearing (true) Bearing (mag) Surface Threshold Offset Overrun Length
04 200 ft / 61 m 8,974 ft / 2,735 m 41.07° 41.88° Asphalt 0 ft / 0 m 0 ft / 0 m
22 200 ft / 61 m 8,974 ft / 2,735 m 221.09° 221.90° Asphalt 0 ft / 0 m 0 ft / 0 m

Approach Navaids

Runway Type Ident Frequency Range Bearing (true) Bearing (mag) Slope Elevation
04 Localiser SC 108.30 MHz 18 nm / 33 km 41.08° 41.89° - 202 ft / 62 m (AMSL)
04 Glidescope SC 108.30 MHz 10 nm / 19 km 41.08° 41.89° 3.00° 202 ft / 62 m (AMSL)

Map

Weather


0- 5 10 15 20 25 30 35+ Temperature / ° C

Clouds and Precipitation
Forecast for 2017-12-12 00:00 UTC. Updated 14 minutes ago

Ground ~20,000 ft ~40,000 ft Winds

METAR

EGXP 111850Z AUTO 32011KT 9999 // FEW050/// M02/M03 Q0992

TAF

Not found
Warning: Do not use this data for real-world aviation or navigation. No guarantee of current accuracy is given.